PWSweather.com
Personal Weather Stations
Station Observations
KMIEASTT1
Tawas Bay, East Tawas, MI 48730

Tawas BayEast Tawas, MI 48730

Lat: 44.28, Lon: -83.48

Elevation: 600

Station Type: Davis VantagePro

http://www.tawasbayweather.com

High Low Average
Temperature 29.7°F-1.3°C 20.0°F-6.7°C 26.5°F-3.1°C
Dew Point 26.6°F-3.0°C 9.3°F-12.6°C 20.2°F-6.6°C
Winds 15.0 mph 24.1 kmh 2.0 mph 3.2 kmh 7.0 mph NW11.3 kmh NW
Wind Gusts 19.0 mph30.6 kmh 5.0 mph8.0 kmh 13.0 mph20.9 kmh
Humidity 92% 61% 77%
Pressure 30.09 in1019.0 mb 29.72 in1006.4 mb -
Precipitation 0.00 in0.0 mm - -
Hour Temp Dew Point Humidity Winds Wind Gusts Pressure Precip Precip Rate Daily Precip Total
12:01 AM 29.2°F-1.6°C 26.6°F-3.0°C 90% 5.0 mph W8.0 kmh W 14.0 mph22.5 kmh 29.72 in1006.4 mb 0.00 in0.0 mm 0.00 in/hr0.0 mm/hr 0.00 in0.0 mm
12:15 AM 29.5°F-1.4°C 26.4°F-3.1°C 88% 9.0 mph WNW14.5 kmh WNW 15.0 mph24.1 kmh 29.72 in1006.4 mb 0.00 in0.0 mm 0.00 in/hr0.0 mm/hr 0.00 in0.0 mm
12:30 AM 29.6°F-1.3°C 26.2°F-3.2°C 87% 10.0 mph W16.1 kmh W 14.0 mph22.5 kmh 29.73 in1006.8 mb 0.00 in0.0 mm 0.00 in/hr0.0 mm/hr 0.00 in0.0 mm
12:45 AM 29.6°F-1.3°C 26.2°F-3.2°C 87% 7.0 mph WSW11.3 kmh WSW 13.0 mph20.9 kmh 29.73 in1006.8 mb 0.00 in0.0 mm 0.00 in/hr0.0 mm/hr 0.00 in0.0 mm
01:00 AM 29.6°F-1.3°C 26.2°F-3.2°C 87% 5.0 mph NW8.0 kmh NW 14.0 mph22.5 kmh 29.73 in1006.8 mb 0.00 in0.0 mm 0.00 in/hr0.0 mm/hr 0.00 in0.0 mm
01:15 AM 29.3°F-1.5°C 26.2°F-3.2°C 88% 5.0 mph W8.0 kmh W 11.0 mph17.7 kmh 29.74 in1007.1 mb 0.00 in0.0 mm 0.00 in/hr0.0 mm/hr 0.00 in0.0 mm
01:30 AM 29.3°F-1.5°C 25.6°F-3.6°C 86% 5.0 mph WNW8.0 kmh WNW 12.0 mph19.3 kmh 29.74 in1007.1 mb 0.00 in0.0 mm 0.00 in/hr0.0 mm/hr 0.00 in0.0 mm
01:45 AM 29.7°F-1.3°C 25.8°F-3.4°C 85% 7.0 mph WSW11.3 kmh WSW 14.0 mph22.5 kmh 29.74 in1007.1 mb 0.00 in0.0 mm 0.00 in/hr0.0 mm/hr 0.00 in0.0 mm
02:00 AM 29.4°F-1.4°C 25.2°F-3.8°C 84% 4.0 mph W6.4 kmh W 13.0 mph20.9 kmh 29.75 in1007.5 mb 0.00 in0.0 mm 0.00 in/hr0.0 mm/hr 0.00 in0.0 mm
02:15 AM 29.7°F-1.3°C 23.4°F-4.8°C 77% 7.0 mph NW11.3 kmh NW 18.0 mph29.0 kmh 29.75 in1007.5 mb 0.00 in0.0 mm 0.00 in/hr0.0 mm/hr 0.00 in0.0 mm
02:30 AM 29.6°F-1.3°C 22.7°F-5.2°C 75% 8.0 mph NW12.9 kmh NW 17.0 mph27.4 kmh 29.76 in1007.8 mb 0.00 in0.0 mm 0.00 in/hr0.0 mm/hr 0.00 in0.0 mm
02:45 AM 29.3°F-1.5°C 22.7°F-5.2°C 76% 6.0 mph WNW9.7 kmh WNW 12.0 mph19.3 kmh 29.76 in1007.8 mb 0.00 in0.0 mm 0.00 in/hr0.0 mm/hr 0.00 in0.0 mm
03:00 AM 29.0°F-1.7°C 23.3°F-4.8°C 79% 3.0 mph NW4.8 kmh NW 10.0 mph16.1 kmh 29.77 in1008.1 mb 0.00 in0.0 mm 0.00 in/hr0.0 mm/hr 0.00 in0.0 mm
03:15 AM 29.0°F-1.7°C 23.0°F-5.0°C 78% 10.0 mph WNW16.1 kmh WNW 13.0 mph20.9 kmh 29.77 in1008.1 mb 0.00 in0.0 mm 0.00 in/hr0.0 mm/hr 0.00 in0.0 mm
03:30 AM 28.9°F-1.7°C 22.9°F-5.1°C 78% 7.0 mph NW11.3 kmh NW 14.0 mph22.5 kmh 29.77 in1008.1 mb 0.00 in0.0 mm 0.00 in/hr0.0 mm/hr 0.00 in0.0 mm
03:45 AM 28.7°F-1.8°C 22.7°F-5.2°C 78% 6.0 mph W9.7 kmh W 16.0 mph25.7 kmh 29.77 in1008.1 mb 0.00 in0.0 mm 0.00 in/hr0.0 mm/hr 0.00 in0.0 mm
04:01 AM 28.6°F-1.9°C 22.6°F-5.2°C 78% 7.0 mph NW11.3 kmh NW 15.0 mph24.1 kmh 29.77 in1008.1 mb 0.00 in0.0 mm 0.00 in/hr0.0 mm/hr 0.00 in0.0 mm
04:15 AM 28.5°F-1.9°C 22.8°F-5.1°C 79% 6.0 mph NW9.7 kmh NW 15.0 mph24.1 kmh 29.78 in1008.5 mb 0.00 in0.0 mm 0.00 in/hr0.0 mm/hr 0.00 in0.0 mm
04:30 AM 28.1°F-2.2°C 23.0°F-5.0°C 81% 6.0 mph W9.7 kmh W 13.0 mph20.9 kmh 29.78 in1008.5 mb 0.00 in0.0 mm 0.00 in/hr0.0 mm/hr 0.00 in0.0 mm
04:45 AM 27.3°F-2.6°C 24.0°F-4.4°C 87% 6.0 mph NW9.7 kmh NW 11.0 mph17.7 kmh 29.78 in1008.5 mb 0.00 in0.0 mm 0.00 in/hr0.0 mm/hr 0.00 in0.0 mm
05:01 AM 27.1°F-2.7°C 23.8°F-4.6°C 87% 7.0 mph NW11.3 kmh NW 15.0 mph24.1 kmh 29.78 in1008.5 mb 0.00 in0.0 mm 0.00 in/hr0.0 mm/hr 0.00 in0.0 mm
05:15 AM 27.8°F-2.3°C 22.2°F-5.4°C 79% 15.0 mph W24.1 kmh W 15.0 mph24.1 kmh 29.78 in1008.5 mb 0.00 in0.0 mm 0.00 in/hr0.0 mm/hr 0.00 in0.0 mm
05:30 AM 27.7°F-2.4°C 22.6°F-5.2°C 81% 5.0 mph WNW8.0 kmh WNW 14.0 mph22.5 kmh 29.79 in1008.8 mb 0.00 in0.0 mm 0.00 in/hr0.0 mm/hr 0.00 in0.0 mm
05:45 AM 27.2°F-2.7°C 22.7°F-5.2°C 83% 5.0 mph WNW8.0 kmh WNW 17.0 mph27.4 kmh 29.79 in1008.8 mb 0.00 in0.0 mm 0.00 in/hr0.0 mm/hr 0.00 in0.0 mm
06:01 AM 26.3°F-3.2°C 23.5°F-4.7°C 89% 6.0 mph NW9.7 kmh NW 10.0 mph16.1 kmh 29.80 in1009.1 mb 0.00 in0.0 mm 0.00 in/hr0.0 mm/hr 0.00 in0.0 mm
06:15 AM 25.7°F-3.5°C 23.7°F-4.6°C 92% 7.0 mph NW11.3 kmh NW 14.0 mph22.5 kmh 29.81 in1009.5 mb 0.00 in0.0 mm 0.00 in/hr0.0 mm/hr 0.00 in0.0 mm
06:30 AM 25.7°F-3.5°C 23.7°F-4.6°C 92% 2.0 mph NW3.2 kmh NW 6.0 mph9.7 kmh 29.81 in1009.5 mb 0.00 in0.0 mm 0.00 in/hr0.0 mm/hr 0.00 in0.0 mm
06:45 AM 25.7°F-3.5°C 23.7°F-4.6°C 92% 3.0 mph WNW4.8 kmh WNW 5.0 mph8.0 kmh 29.81 in1009.5 mb 0.00 in0.0 mm 0.00 in/hr0.0 mm/hr 0.00 in0.0 mm
07:01 AM 25.7°F-3.5°C 23.7°F-4.6°C 92% 5.0 mph NW8.0 kmh NW 9.0 mph14.5 kmh 29.81 in1009.5 mb 0.01 in0.3 mm 0.01 in/hr0.3 mm/hr 0.01 in0.3 mm
07:15 AM 25.8°F-3.4°C 22.5°F-5.3°C 87% 4.0 mph W6.4 kmh W 9.0 mph14.5 kmh 29.81 in1009.5 mb 0.02 in0.5 mm 0.04 in/hr1.0 mm/hr 0.02 in0.5 mm
07:30 AM 25.9°F-3.4°C 22.0°F-5.6°C 85% 6.0 mph NNW9.7 kmh NNW 10.0 mph16.1 kmh 29.81 in1009.5 mb 0.02 in0.5 mm 0.00 in/hr0.0 mm/hr 0.02 in0.5 mm
07:45 AM 25.7°F-3.5°C 22.7°F-5.2°C 88% 4.0 mph NW6.4 kmh NW 8.0 mph12.9 kmh 29.82 in1009.8 mb 0.02 in0.5 mm 0.00 in/hr0.0 mm/hr 0.02 in0.5 mm
08:01 AM 25.3°F-3.7°C 21.7°F-5.7°C 86% 7.0 mph WNW11.3 kmh WNW 9.0 mph14.5 kmh 29.82 in1009.8 mb 0.01 in0.3 mm 0.00 in/hr0.0 mm/hr 0.02 in0.5 mm
08:15 AM 25.6°F-3.6°C 20.9°F-6.2°C 82% 5.0 mph NW8.0 kmh NW 9.0 mph14.5 kmh 29.82 in1009.8 mb 0.01 in0.3 mm 0.00 in/hr0.0 mm/hr 0.02 in0.5 mm
08:30 AM 25.8°F-3.4°C 20.2°F-6.6°C 79% 12.0 mph NNW19.3 kmh NNW 16.0 mph25.7 kmh 29.83 in1010.2 mb 0.01 in0.3 mm 0.00 in/hr0.0 mm/hr 0.02 in0.5 mm
08:45 AM 25.9°F-3.4°C 20.0°F-6.7°C 78% 6.0 mph W9.7 kmh W 8.0 mph12.9 kmh 29.83 in1010.2 mb 0.00 in0.0 mm 0.00 in/hr0.0 mm/hr 0.02 in0.5 mm
09:01 AM 25.7°F-3.5°C 19.2°F-7.1°C 76% 6.0 mph NW9.7 kmh NW 14.0 mph22.5 kmh 29.84 in1010.5 mb 0.00 in0.0 mm 0.00 in/hr0.0 mm/hr 0.02 in0.5 mm
09:15 AM 25.9°F-3.4°C 19.4°F-7.0°C 76% 14.0 mph NW22.5 kmh NW 14.0 mph22.5 kmh 29.84 in1010.5 mb 0.00 in0.0 mm 0.00 in/hr0.0 mm/hr 0.02 in0.5 mm
09:30 AM 26.1°F-3.3°C 19.6°F-6.9°C 76% 7.0 mph NW11.3 kmh NW 15.0 mph24.1 kmh 29.85 in1010.8 mb 0.00 in0.0 mm 0.00 in/hr0.0 mm/hr 0.02 in0.5 mm
09:45 AM 26.1°F-3.3°C 20.2°F-6.6°C 78% 4.0 mph NW6.4 kmh NW 6.0 mph9.7 kmh 29.85 in1010.8 mb 0.00 in0.0 mm 0.00 in/hr0.0 mm/hr 0.02 in0.5 mm
10:01 AM 26.3°F-3.2°C 19.8°F-6.8°C 76% 14.0 mph WNW22.5 kmh WNW 16.0 mph25.7 kmh 29.86 in1011.2 mb 0.00 in0.0 mm 0.00 in/hr0.0 mm/hr 0.02 in0.5 mm
10:15 AM 26.1°F-3.3°C 20.5°F-6.4°C 79% 6.0 mph NNW9.7 kmh NNW 14.0 mph22.5 kmh 29.86 in1011.2 mb 0.00 in0.0 mm 0.00 in/hr0.0 mm/hr 0.02 in0.5 mm
10:30 AM 26.8°F-2.9°C 20.6°F-6.3°C 77% 4.0 mph W6.4 kmh W 10.0 mph16.1 kmh 29.86 in1011.2 mb 0.00 in0.0 mm 0.00 in/hr0.0 mm/hr 0.02 in0.5 mm
10:45 AM 26.9°F-2.8°C 20.4°F-6.4°C 76% 10.0 mph WSW16.1 kmh WSW 12.0 mph19.3 kmh 29.87 in1011.5 mb 0.00 in0.0 mm 0.00 in/hr0.0 mm/hr 0.02 in0.5 mm
11:01 AM 25.7°F-3.5°C 21.8°F-5.7°C 85% 5.0 mph WNW8.0 kmh WNW 14.0 mph22.5 kmh 29.88 in1011.9 mb 0.00 in0.0 mm 0.00 in/hr0.0 mm/hr 0.02 in0.5 mm
11:15 AM 26.7°F-2.9°C 21.1°F-6.1°C 79% 7.0 mph WSW11.3 kmh WSW 13.0 mph20.9 kmh 29.88 in1011.9 mb 0.00 in0.0 mm 0.00 in/hr0.0 mm/hr 0.02 in0.5 mm
11:30 AM 26.6°F-3.0°C 19.4°F-7.0°C 74% 9.0 mph WNW14.5 kmh WNW 14.0 mph22.5 kmh 29.88 in1011.9 mb 0.00 in0.0 mm 0.00 in/hr0.0 mm/hr 0.02 in0.5 mm
11:45 AM 26.9°F-2.8°C 18.8°F-7.3°C 71% 5.0 mph NNW8.0 kmh NNW 12.0 mph19.3 kmh 29.88 in1011.9 mb 0.00 in0.0 mm 0.00 in/hr0.0 mm/hr 0.02 in0.5 mm
12:01 PM 27.9°F-2.3°C 18.7°F-7.4°C 68% 5.0 mph NW8.0 kmh NW 11.0 mph17.7 kmh 29.88 in1011.9 mb 0.00 in0.0 mm 0.00 in/hr0.0 mm/hr 0.02 in0.5 mm
12:15 PM 27.2°F-2.7°C 18.1°F-7.7°C 68% 2.0 mph NNW3.2 kmh NNW 12.0 mph19.3 kmh 29.88 in1011.9 mb 0.00 in0.0 mm 0.00 in/hr0.0 mm/hr 0.02 in0.5 mm
12:30 PM 26.0°F-3.3°C 19.2°F-7.1°C 75% 7.0 mph NW11.3 kmh NW 13.0 mph20.9 kmh 29.89 in1012.2 mb 0.00 in0.0 mm 0.00 in/hr0.0 mm/hr 0.02 in0.5 mm
12:45 PM 25.1°F-3.8°C 19.5°F-6.9°C 79% 7.0 mph NW11.3 kmh NW 12.0 mph19.3 kmh 29.90 in1012.5 mb 0.00 in0.0 mm 0.00 in/hr0.0 mm/hr 0.02 in0.5 mm
01:01 PM 26.0°F-3.3°C 18.6°F-7.4°C 73% 10.0 mph NW16.1 kmh NW 11.0 mph17.7 kmh 29.90 in1012.5 mb 0.00 in0.0 mm 0.00 in/hr0.0 mm/hr 0.02 in0.5 mm
01:15 PM 25.9°F-3.4°C 19.4°F-7.0°C 76% 5.0 mph NW8.0 kmh NW 13.0 mph20.9 kmh 29.90 in1012.5 mb 0.00 in0.0 mm 0.00 in/hr0.0 mm/hr 0.02 in0.5 mm
01:31 PM 25.5°F-3.6°C 19.6°F-6.9°C 78% 5.0 mph WNW8.0 kmh WNW 17.0 mph27.4 kmh 29.91 in1012.9 mb 0.00 in0.0 mm 0.00 in/hr0.0 mm/hr 0.02 in0.5 mm
01:45 PM 25.8°F-3.4°C 19.6°F-6.9°C 77% 8.0 mph NW12.9 kmh NW 13.0 mph20.9 kmh 29.91 in1012.9 mb 0.00 in0.0 mm 0.00 in/hr0.0 mm/hr 0.02 in0.5 mm
02:01 PM 27.3°F-2.6°C 19.5°F-6.9°C 72% 5.0 mph NNW8.0 kmh NNW 11.0 mph17.7 kmh 29.92 in1013.2 mb 0.00 in0.0 mm 0.00 in/hr0.0 mm/hr 0.02 in0.5 mm
02:15 PM 27.0°F-2.8°C 18.5°F-7.5°C 70% 7.0 mph NW11.3 kmh NW 16.0 mph25.7 kmh 29.92 in1013.2 mb 0.00 in0.0 mm 0.00 in/hr0.0 mm/hr 0.02 in0.5 mm
02:31 PM 26.6°F-3.0°C 17.8°F-7.9°C 69% 6.0 mph WNW9.7 kmh WNW 15.0 mph24.1 kmh 29.92 in1013.2 mb 0.00 in0.0 mm 0.00 in/hr0.0 mm/hr 0.02 in0.5 mm
03:01 PM 26.5°F-3.1°C 16.7°F-8.5°C 66% 7.0 mph WNW11.3 kmh WNW 16.0 mph25.7 kmh 29.94 in1013.9 mb 0.00 in0.0 mm 0.00 in/hr0.0 mm/hr 0.02 in0.5 mm
03:15 PM 27.6°F-2.4°C 18.4°F-7.6°C 68% 4.0 mph NW6.4 kmh NW 17.0 mph27.4 kmh 29.95 in1014.2 mb 0.00 in0.0 mm 0.00 in/hr0.0 mm/hr 0.02 in0.5 mm
03:30 PM 28.3°F-2.1°C 18.4°F-7.6°C 66% 8.0 mph NNW12.9 kmh NNW 11.0 mph17.7 kmh 29.96 in1014.6 mb 0.00 in0.0 mm 0.00 in/hr0.0 mm/hr 0.02 in0.5 mm
03:45 PM 26.1°F-3.3°C 15.6°F-9.1°C 64% 6.0 mph NNW9.7 kmh NNW 16.0 mph25.7 kmh 29.97 in1014.9 mb 0.00 in0.0 mm 0.00 in/hr0.0 mm/hr 0.02 in0.5 mm
04:01 PM 25.3°F-3.7°C 16.2°F-8.8°C 68% 3.0 mph NNW4.8 kmh NNW 17.0 mph27.4 kmh 29.99 in1015.6 mb 0.00 in0.0 mm 0.00 in/hr0.0 mm/hr 0.02 in0.5 mm
04:15 PM 24.2°F-4.3°C 14.5°F-9.7°C 66% 8.0 mph W12.9 kmh W 19.0 mph30.6 kmh 30.00 in1015.9 mb 0.00 in0.0 mm 0.00 in/hr0.0 mm/hr 0.02 in0.5 mm
04:30 PM 23.9°F-4.5°C 14.2°F-9.9°C 66% 9.0 mph NW14.5 kmh NW 13.0 mph20.9 kmh 30.01 in1016.3 mb 0.00 in0.0 mm 0.00 in/hr0.0 mm/hr 0.02 in0.5 mm
04:45 PM 23.1°F-4.9°C 13.5°F-10.3°C 66% 5.0 mph NW8.0 kmh NW 13.0 mph20.9 kmh 30.03 in1016.9 mb 0.00 in0.0 mm 0.00 in/hr0.0 mm/hr 0.02 in0.5 mm
05:01 PM 21.9°F-5.6°C 11.3°F-11.5°C 63% 7.0 mph NW11.3 kmh NW 11.0 mph17.7 kmh 30.04 in1017.3 mb 0.00 in0.0 mm 0.00 in/hr0.0 mm/hr 0.02 in0.5 mm
05:15 PM 21.4°F-5.9°C 10.4°F-12.0°C 62% 7.0 mph NNW11.3 kmh NNW 14.0 mph22.5 kmh 30.04 in1017.3 mb 0.00 in0.0 mm 0.00 in/hr0.0 mm/hr 0.02 in0.5 mm
05:30 PM 21.2°F-6.0°C 10.6°F-11.9°C 63% 8.0 mph NW12.9 kmh NW 18.0 mph29.0 kmh 30.06 in1017.9 mb 0.00 in0.0 mm 0.00 in/hr0.0 mm/hr 0.02 in0.5 mm
05:45 PM 21.1°F-6.1°C 9.8°F-12.3°C 61% 8.0 mph NW12.9 kmh NW 19.0 mph30.6 kmh 30.07 in1018.3 mb 0.00 in0.0 mm 0.00 in/hr0.0 mm/hr 0.02 in0.5 mm
06:01 PM 20.7°F-6.3°C 9.4°F-12.6°C 61% 8.0 mph NNW12.9 kmh NNW 16.0 mph25.7 kmh 30.08 in1018.6 mb 0.00 in0.0 mm 0.00 in/hr0.0 mm/hr 0.02 in0.5 mm
06:16 PM 20.2°F-6.6°C 9.3°F-12.6°C 62% 3.0 mph SW4.8 kmh SW 12.0 mph19.3 kmh 30.08 in1018.6 mb 0.00 in0.0 mm 0.00 in/hr0.0 mm/hr 0.02 in0.5 mm
06:30 PM 20.0°F-6.7°C 9.5°F-12.5°C 63% 5.0 mph NNW8.0 kmh NNW 11.0 mph17.7 kmh 30.09 in1019.0 mb 0.00 in0.0 mm 0.00 in/hr0.0 mm/hr 0.02 in0.5 mm
06:45 PM 19.6°F-6.9°C 9.1°F-12.7°C 63% 9.0 mph WNW14.5 kmh WNW 13.0 mph20.9 kmh 30.10 in1019.3 mb 0.00 in0.0 mm 0.00 in/hr0.0 mm/hr 0.02 in0.5 mm
07:01 PM 19.4°F-7.0°C 9.2°F-12.7°C 64% 5.0 mph NW8.0 kmh NW 11.0 mph17.7 kmh 30.10 in1019.3 mb 0.00 in0.0 mm 0.00 in/hr0.0 mm/hr 0.02 in0.5 mm
07:15 PM 19.1°F-7.2°C 9.3°F-12.6°C 65% 11.0 mph NW17.7 kmh NW 12.0 mph19.3 kmh 30.11 in1019.6 mb 0.00 in0.0 mm 0.00 in/hr0.0 mm/hr 0.02 in0.5 mm
07:30 PM 18.9°F-7.3°C 9.1°F-12.7°C 65% 6.0 mph NW9.7 kmh NW 11.0 mph17.7 kmh 30.12 in1020.0 mb 0.00 in0.0 mm 0.00 in/hr0.0 mm/hr 0.02 in0.5 mm
07:45 PM 18.7°F-7.4°C 8.9°F-12.8°C 65% 6.0 mph N9.7 kmh N 13.0 mph20.9 kmh 30.12 in1020.0 mb 0.00 in0.0 mm 0.00 in/hr0.0 mm/hr 0.02 in0.5 mm
08:01 PM 18.4°F-7.6°C 9.0°F-12.8°C 66% 6.0 mph NNW9.7 kmh NNW 13.0 mph20.9 kmh 30.12 in1020.0 mb 0.00 in0.0 mm 0.00 in/hr0.0 mm/hr 0.02 in0.5 mm
08:15 PM 18.1°F-7.7°C 9.3°F-12.6°C 68% 7.0 mph NW11.3 kmh NW 13.0 mph20.9 kmh 30.13 in1020.3 mb 0.00 in0.0 mm 0.00 in/hr0.0 mm/hr 0.02 in0.5 mm
08:30 PM 18.0°F-7.8°C 9.2°F-12.7°C 68% 3.0 mph N4.8 kmh N 14.0 mph22.5 kmh 30.13 in1020.3 mb 0.00 in0.0 mm 0.00 in/hr0.0 mm/hr 0.02 in0.5 mm
08:45 PM 17.9°F-7.8°C 9.1°F-12.7°C 68% 9.0 mph NNW14.5 kmh NNW 12.0 mph19.3 kmh 30.14 in1020.7 mb 0.00 in0.0 mm 0.00 in/hr0.0 mm/hr 0.02 in0.5 mm
09:01 PM 17.6°F-8.0°C 8.9°F-12.8°C 68% 5.0 mph NNW8.0 kmh NNW 12.0 mph19.3 kmh 30.14 in1020.7 mb 0.00 in0.0 mm 0.00 in/hr0.0 mm/hr 0.02 in0.5 mm
09:15 PM 17.4°F-8.1°C 8.7°F-12.9°C 68% 6.0 mph NW9.7 kmh NW 11.0 mph17.7 kmh 30.15 in1021.0 mb 0.00 in0.0 mm 0.00 in/hr0.0 mm/hr 0.02 in0.5 mm
09:30 PM 17.3°F-8.2°C 8.9°F-12.8°C 69% 8.0 mph NW12.9 kmh NW 14.0 mph22.5 kmh 30.15 in1021.0 mb 0.00 in0.0 mm 0.00 in/hr0.0 mm/hr 0.02 in0.5 mm
09:45 PM 17.2°F-8.2°C 8.8°F-12.9°C 69% 9.0 mph N14.5 kmh N 15.0 mph24.1 kmh 30.15 in1021.0 mb 0.00 in0.0 mm 0.00 in/hr0.0 mm/hr 0.02 in0.5 mm
10:01 PM 17.1°F-8.3°C 8.4°F-13.1°C 68% 8.0 mph NW12.9 kmh NW 14.0 mph22.5 kmh 30.16 in1021.3 mb 0.00 in0.0 mm 0.00 in/hr0.0 mm/hr 0.02 in0.5 mm
10:15 PM 16.8°F-8.4°C 8.1°F-13.3°C 68% 5.0 mph NNE8.0 kmh NNE 14.0 mph22.5 kmh 30.16 in1021.3 mb 0.00 in0.0 mm 0.00 in/hr0.0 mm/hr 0.02 in0.5 mm
10:30 PM 16.6°F-8.6°C 7.9°F-13.4°C 68% 7.0 mph WNW11.3 kmh WNW 13.0 mph20.9 kmh 30.17 in1021.7 mb 0.00 in0.0 mm 0.00 in/hr0.0 mm/hr 0.02 in0.5 mm
10:45 PM 16.4°F-8.7°C 7.0°F-13.9°C 66% 11.0 mph NW17.7 kmh NW 13.0 mph20.9 kmh 30.18 in1022.0 mb 0.00 in0.0 mm 0.00 in/hr0.0 mm/hr 0.02 in0.5 mm
11:01 PM 16.1°F-8.8°C 6.4°F-14.2°C 65% 11.0 mph NW17.7 kmh NW 14.0 mph22.5 kmh 30.18 in1022.0 mb 0.00 in0.0 mm 0.00 in/hr0.0 mm/hr 0.02 in0.5 mm
11:15 PM 15.9°F-8.9°C 6.6°F-14.1°C 66% 9.0 mph NW14.5 kmh NW 13.0 mph20.9 kmh 30.19 in1022.4 mb 0.00 in0.0 mm 0.00 in/hr0.0 mm/hr 0.02 in0.5 mm
11:30 PM 15.3°F-9.3°C 6.0°F-14.4°C 66% 5.0 mph NW8.0 kmh NW 12.0 mph19.3 kmh 30.19 in1022.4 mb 0.00 in0.0 mm 0.00 in/hr0.0 mm/hr 0.02 in0.5 mm
11:45 PM 15.0°F-9.4°C 6.0°F-14.4°C 67% 5.0 mph NW8.0 kmh NW 10.0 mph16.1 kmh 30.19 in1022.4 mb 0.00 in0.0 mm 0.00 in/hr0.0 mm/hr 0.02 in0.5 mm